sensor_id;sensor_type;location;lat;lon;timestamp;temperature;humidity
9849;DHT22;4963;51.444;6.528;2023-04-25T00:01:53;8.40;99.90
9849;DHT22;4963;51.444;6.528;2023-04-25T00:04:19;8.20;99.90
9849;DHT22;4963;51.444;6.528;2023-04-25T00:06:47;8.30;99.90
9849;DHT22;4963;51.444;6.528;2023-04-25T00:09:15;8.30;99.90
9849;DHT22;4963;51.444;6.528;2023-04-25T00:11:42;8.30;99.90
9849;DHT22;4963;51.444;6.528;2023-04-25T00:14:09;8.40;99.90
9849;DHT22;4963;51.444;6.528;2023-04-25T00:16:36;8.40;99.90
9849;DHT22;4963;51.444;6.528;2023-04-25T00:19:03;8.30;99.90
9849;DHT22;4963;51.444;6.528;2023-04-25T00:21:30;8.30;99.90
9849;DHT22;4963;51.444;6.528;2023-04-25T00:23:58;8.30;99.90
9849;DHT22;4963;51.444;6.528;2023-04-25T00:26:26;8.30;99.90
9849;DHT22;4963;51.444;6.528;2023-04-25T00:28:53;8.20;99.90
9849;DHT22;4963;51.444;6.528;2023-04-25T00:31:20;8.40;99.90
9849;DHT22;4963;51.444;6.528;2023-04-25T00:33:47;8.40;99.90
9849;DHT22;4963;51.444;6.528;2023-04-25T00:36:14;8.40;99.90
9849;DHT22;4963;51.444;6.528;2023-04-25T00:38:41;8.40;99.90
9849;DHT22;4963;51.444;6.528;2023-04-25T00:41:07;8.40;99.90
9849;DHT22;4963;51.444;6.528;2023-04-25T00:43:36;8.40;99.90
9849;DHT22;4963;51.444;6.528;2023-04-25T00:46:03;8.50;99.90
9849;DHT22;4963;51.444;6.528;2023-04-25T00:48:30;8.40;99.90
9849;DHT22;4963;51.444;6.528;2023-04-25T00:50:58;8.40;99.90
9849;DHT22;4963;51.444;6.528;2023-04-25T00:53:26;8.40;99.90
9849;DHT22;4963;51.444;6.528;2023-04-25T00:55:54;8.40;99.90
9849;DHT22;4963;51.444;6.528;2023-04-25T00:58:21;8.50;99.90
9849;DHT22;4963;51.444;6.528;2023-04-25T01:00:51;8.40;99.90
9849;DHT22;4963;51.444;6.528;2023-04-25T01:03:18;8.50;99.90
9849;DHT22;4963;51.444;6.528;2023-04-25T01:05:46;8.50;99.90
9849;DHT22;4963;51.444;6.528;2023-04-25T01:08:14;8.50;99.90
9849;DHT22;4963;51.444;6.528;2023-04-25T01:10:41;8.60;99.90
9849;DHT22;4963;51.444;6.528;2023-04-25T01:13:08;8.50;99.90
9849;DHT22;4963;51.444;6.528;2023-04-25T01:15:35;8.50;99.90
9849;DHT22;4963;51.444;6.528;2023-04-25T01:18:03;8.50;99.90
9849;DHT22;4963;51.444;6.528;2023-04-25T01:20:32;8.50;99.90
9849;DHT22;4963;51.444;6.528;2023-04-25T01:23:00;8.50;99.90
9849;DHT22;4963;51.444;6.528;2023-04-25T01:25:29;8.50;99.90
9849;DHT22;4963;51.444;6.528;2023-04-25T01:27:56;8.50;99.90
9849;DHT22;4963;51.444;6.528;2023-04-25T01:30:23;8.50;99.90
9849;DHT22;4963;51.444;6.528;2023-04-25T01:32:50;8.50;99.90
9849;DHT22;4963;51.444;6.528;2023-04-25T01:35:17;8.50;99.90
9849;DHT22;4963;51.444;6.528;2023-04-25T01:37:45;8.50;99.90
9849;DHT22;4963;51.444;6.528;2023-04-25T01:40:13;8.50;99.90
9849;DHT22;4963;51.444;6.528;2023-04-25T01:42:42;8.50;99.90
9849;DHT22;4963;51.444;6.528;2023-04-25T01:45:10;8.50;99.90
9849;DHT22;4963;51.444;6.528;2023-04-25T01:47:37;8.50;99.90
9849;DHT22;4963;51.444;6.528;2023-04-25T01:50:07;8.50;99.90
9849;DHT22;4963;51.444;6.528;2023-04-25T01:52:34;8.50;99.90
9849;DHT22;4963;51.444;6.528;2023-04-25T01:55:02;8.50;99.90
9849;DHT22;4963;51.444;6.528;2023-04-25T01:57:30;8.50;99.90
9849;DHT22;4963;51.444;6.528;2023-04-25T01:59:59;8.50;99.90
9849;DHT22;4963;51.444;6.528;2023-04-25T02:02:26;8.50;99.90
9849;DHT22;4963;51.444;6.528;2023-04-25T02:04:53;8.40;99.90
9849;DHT22;4963;51.444;6.528;2023-04-25T02:07:21;8.50;99.90
9849;DHT22;4963;51.444;6.528;2023-04-25T02:09:48;8.50;99.90
9849;DHT22;4963;51.444;6.528;2023-04-25T02:12:15;8.30;99.90
9849;DHT22;4963;51.444;6.528;2023-04-25T02:14:43;8.50;99.90
9849;DHT22;4963;51.444;6.528;2023-04-25T02:17:10;8.40;99.90
9849;DHT22;4963;51.444;6.528;2023-04-25T02:19:38;8.40;99.90
9849;DHT22;4963;51.444;6.528;2023-04-25T02:22:04;8.40;99.90
9849;DHT22;4963;51.444;6.528;2023-04-25T02:24:31;8.30;99.90
9849;DHT22;4963;51.444;6.528;2023-04-25T02:26:59;8.40;99.90
9849;DHT22;4963;51.444;6.528;2023-04-25T02:29:26;8.40;99.90
9849;DHT22;4963;51.444;6.528;2023-04-25T02:31:54;8.40;99.90
9849;DHT22;4963;51.444;6.528;2023-04-25T02:34:21;8.40;99.90
9849;DHT22;4963;51.444;6.528;2023-04-25T02:36:48;8.40;99.90
9849;DHT22;4963;51.444;6.528;2023-04-25T02:39:16;8.30;99.90
9849;DHT22;4963;51.444;6.528;2023-04-25T02:44:10;8.30;99.90
9849;DHT22;4963;51.444;6.528;2023-04-25T02:46:37;8.40;99.90
9849;DHT22;4963;51.444;6.528;2023-04-25T02:49:05;8.30;99.90
9849;DHT22;4963;51.444;6.528;2023-04-25T02:51:32;8.30;99.90
9849;DHT22;4963;51.444;6.528;2023-04-25T02:53:59;8.30;99.90
9849;DHT22;4963;51.444;6.528;2023-04-25T02:56:25;8.30;99.90
9849;DHT22;4963;51.444;6.528;2023-04-25T02:58:52;8.40;99.90
9849;DHT22;4963;51.444;6.528;2023-04-25T03:01:19;8.30;99.90
9849;DHT22;4963;51.444;6.528;2023-04-25T03:03:46;8.40;99.90
9849;DHT22;4963;51.444;6.528;2023-04-25T03:06:14;8.30;99.90
9849;DHT22;4963;51.444;6.528;2023-04-25T03:08:41;8.30;99.90
9849;DHT22;4963;51.444;6.528;2023-04-25T03:11:08;8.30;99.90
9849;DHT22;4963;51.444;6.528;2023-04-25T03:13:35;8.30;99.90
9849;DHT22;4963;51.444;6.528;2023-04-25T03:16:02;8.20;99.90
9849;DHT22;4963;51.444;6.528;2023-04-25T03:18:29;8.20;99.90
9849;DHT22;4963;51.444;6.528;2023-04-25T03:20:56;8.20;99.90
9849;DHT22;4963;51.444;6.528;2023-04-25T03:23:24;8.20;99.90
9849;DHT22;4963;51.444;6.528;2023-04-25T03:25:51;8.20;99.90
9849;DHT22;4963;51.444;6.528;2023-04-25T03:28:18;8.20;99.90
9849;DHT22;4963;51.444;6.528;2023-04-25T03:30:45;8.20;99.90
9849;DHT22;4963;51.444;6.528;2023-04-25T03:33:12;8.20;99.90
9849;DHT22;4963;51.444;6.528;2023-04-25T03:35:38;8.30;99.90
9849;DHT22;4963;51.444;6.528;2023-04-25T03:38:05;8.10;99.90
9849;DHT22;4963;51.444;6.528;2023-04-25T03:40:33;8.20;99.90
9849;DHT22;4963;51.444;6.528;2023-04-25T03:43:00;8.20;99.90
9849;DHT22;4963;51.444;6.528;2023-04-25T03:45:27;8.10;99.90
9849;DHT22;4963;51.444;6.528;2023-04-25T03:47:53;8.10;99.90
9849;DHT22;4963;51.444;6.528;2023-04-25T03:50:20;8.10;99.90
9849;DHT22;4963;51.444;6.528;2023-04-25T03:52:47;8.10;99.90
9849;DHT22;4963;51.444;6.528;2023-04-25T03:55:14;8.10;99.90
9849;DHT22;4963;51.444;6.528;2023-04-25T03:57:43;8.10;99.90
9849;DHT22;4963;51.444;6.528;2023-04-25T04:00:11;8.10;99.90
9849;DHT22;4963;51.444;6.528;2023-04-25T04:02:38;8.10;99.90
9849;DHT22;4963;51.444;6.528;2023-04-25T04:05:05;8.00;99.90
9849;DHT22;4963;51.444;6.528;2023-04-25T04:07:32;8.00;99.90
9849;DHT22;4963;51.444;6.528;2023-04-25T04:10:02;7.90;99.90
9849;DHT22;4963;51.444;6.528;2023-04-25T04:12:30;7.90;99.90
9849;DHT22;4963;51.444;6.528;2023-04-25T04:14:58;7.90;99.90
9849;DHT22;4963;51.444;6.528;2023-04-25T04:17:25;7.80;99.90
9849;DHT22;4963;51.444;6.528;2023-04-25T04:19:52;7.70;99.90
9849;DHT22;4963;51.444;6.528;2023-04-25T04:22:19;7.80;99.90
9849;DHT22;4963;51.444;6.528;2023-04-25T04:24:46;7.70;99.90
9849;DHT22;4963;51.444;6.528;2023-04-25T04:27:12;7.70;99.90
9849;DHT22;4963;51.444;6.528;2023-04-25T04:29:40;7.70;99.90
9849;DHT22;4963;51.444;6.528;2023-04-25T04:32:08;7.60;99.90
9849;DHT22;4963;51.444;6.528;2023-04-25T04:34:35;7.60;99.90
9849;DHT22;4963;51.444;6.528;2023-04-25T04:37:03;7.50;99.90
9849;DHT22;4963;51.444;6.528;2023-04-25T04:39:30;7.50;99.90
9849;DHT22;4963;51.444;6.528;2023-04-25T04:41:57;7.60;99.90
9849;DHT22;4963;51.444;6.528;2023-04-25T04:44:24;7.50;99.90
9849;DHT22;4963;51.444;6.528;2023-04-25T04:46:51;7.50;99.90
9849;DHT22;4963;51.444;6.528;2023-04-25T04:49:20;7.50;99.90
9849;DHT22;4963;51.444;6.528;2023-04-25T04:51:47;7.60;99.90
9849;DHT22;4963;51.444;6.528;2023-04-25T04:54:15;7.60;99.90
9849;DHT22;4963;51.444;6.528;2023-04-25T04:56:41;7.60;99.90
9849;DHT22;4963;51.444;6.528;2023-04-25T04:59:08;7.50;99.90
9849;DHT22;4963;51.444;6.528;2023-04-25T05:01:36;7.50;99.90
9849;DHT22;4963;51.444;6.528;2023-04-25T05:04:03;7.60;99.90
9849;DHT22;4963;51.444;6.528;2023-04-25T05:06:31;7.60;99.90
9849;DHT22;4963;51.444;6.528;2023-04-25T05:08:58;7.60;99.90
9849;DHT22;4963;51.444;6.528;2023-04-25T05:11:25;7.70;99.90
9849;DHT22;4963;51.444;6.528;2023-04-25T05:13:52;7.90;99.90
9849;DHT22;4963;51.444;6.528;2023-04-25T05:16:20;8.20;99.90
9849;DHT22;4963;51.444;6.528;2023-04-25T05:18:47;8.30;99.90
9849;DHT22;4963;51.444;6.528;2023-04-25T05:21:14;8.40;99.90
9849;DHT22;4963;51.444;6.528;2023-04-25T05:23:42;8.50;99.90
9849;DHT22;4963;51.444;6.528;2023-04-25T05:26:09;8.40;99.90
9849;DHT22;4963;51.444;6.528;2023-04-25T05:28:39;8.40;99.90
9849;DHT22;4963;51.444;6.528;2023-04-25T05:31:06;8.30;99.90
9849;DHT22;4963;51.444;6.528;2023-04-25T05:33:33;8.20;99.90
9849;DHT22;4963;51.444;6.528;2023-04-25T05:36:00;8.20;99.90
9849;DHT22;4963;51.444;6.528;2023-04-25T05:38:26;8.20;99.90
9849;DHT22;4963;51.444;6.528;2023-04-25T05:40:55;8.30;99.90
9849;DHT22;4963;51.444;6.528;2023-04-25T05:43:21;8.20;99.90
9849;DHT22;4963;51.444;6.528;2023-04-25T05:45:48;8.20;99.90
9849;DHT22;4963;51.444;6.528;2023-04-25T05:48:15;8.20;99.90
9849;DHT22;4963;51.444;6.528;2023-04-25T05:50:42;8.20;99.90
9849;DHT22;4963;51.444;6.528;2023-04-25T05:53:09;8.10;99.90
9849;DHT22;4963;51.444;6.528;2023-04-25T05:55:36;8.10;99.90
9849;DHT22;4963;51.444;6.528;2023-04-25T05:58:05;8.10;99.90
9849;DHT22;4963;51.444;6.528;2023-04-25T06:00:32;8.20;99.90
9849;DHT22;4963;51.444;6.528;2023-04-25T06:02:59;8.20;99.90
9849;DHT22;4963;51.444;6.528;2023-04-25T06:05:26;8.30;99.90
9849;DHT22;4963;51.444;6.528;2023-04-25T06:07:53;8.20;99.90
9849;DHT22;4963;51.444;6.528;2023-04-25T06:10:21;8.30;99.90
9849;DHT22;4963;51.444;6.528;2023-04-25T06:12:48;8.30;99.90
9849;DHT22;4963;51.444;6.528;2023-04-25T06:15:16;8.40;99.90
9849;DHT22;4963;51.444;6.528;2023-04-25T06:17:43;8.40;99.90
9849;DHT22;4963;51.444;6.528;2023-04-25T06:20:10;8.60;99.90
9849;DHT22;4963;51.444;6.528;2023-04-25T06:22:37;9.00;99.90
9849;DHT22;4963;51.444;6.528;2023-04-25T06:25:04;9.50;99.90
9849;DHT22;4963;51.444;6.528;2023-04-25T06:27:32;10.10;99.90
9849;DHT22;4963;51.444;6.528;2023-04-25T06:29:59;10.60;99.90
9849;DHT22;4963;51.444;6.528;2023-04-25T06:32:27;11.00;99.90
9849;DHT22;4963;51.444;6.528;2023-04-25T06:34:55;11.50;99.90
9849;DHT22;4963;51.444;6.528;2023-04-25T06:37:22;11.70;99.90
9849;DHT22;4963;51.444;6.528;2023-04-25T06:39:48;11.90;99.90
9849;DHT22;4963;51.444;6.528;2023-04-25T06:42:15;12.10;99.90
9849;DHT22;4963;51.444;6.528;2023-04-25T06:44:42;12.20;99.90
9849;DHT22;4963;51.444;6.528;2023-04-25T06:47:09;12.50;99.90
9849;DHT22;4963;51.444;6.528;2023-04-25T06:49:37;12.60;99.90
9849;DHT22;4963;51.444;6.528;2023-04-25T06:52:04;12.70;99.90
9849;DHT22;4963;51.444;6.528;2023-04-25T06:54:30;12.60;99.90
9849;DHT22;4963;51.444;6.528;2023-04-25T06:56:57;12.60;99.90
9849;DHT22;4963;51.444;6.528;2023-04-25T06:59:26;12.70;99.90
9849;DHT22;4963;51.444;6.528;2023-04-25T07:01:53;12.80;99.90
9849;DHT22;4963;51.444;6.528;2023-04-25T07:04:20;12.80;99.90
9849;DHT22;4963;51.444;6.528;2023-04-25T07:06:48;12.80;99.90
9849;DHT22;4963;51.444;6.528;2023-04-25T07:09:15;12.60;99.90
9849;DHT22;4963;51.444;6.528;2023-04-25T07:11:42;12.50;99.90
9849;DHT22;4963;51.444;6.528;2023-04-25T07:14:08;12.50;99.90
9849;DHT22;4963;51.444;6.528;2023-04-25T07:16:35;12.80;99.90
9849;DHT22;4963;51.444;6.528;2023-04-25T07:19:02;13.00;99.90
9849;DHT22;4963;51.444;6.528;2023-04-25T07:21:29;13.40;99.90
9849;DHT22;4963;51.444;6.528;2023-04-25T07:23:58;13.60;99.90
9849;DHT22;4963;51.444;6.528;2023-04-25T07:26:24;13.90;99.90
9849;DHT22;4963;51.444;6.528;2023-04-25T07:28:51;14.10;99.90
9849;DHT22;4963;51.444;6.528;2023-04-25T07:31:18;14.30;99.90
9849;DHT22;4963;51.444;6.528;2023-04-25T07:33:45;14.50;99.90
9849;DHT22;4963;51.444;6.528;2023-04-25T07:36:12;14.70;99.90
9849;DHT22;4963;51.444;6.528;2023-04-25T07:38:40;14.80;99.90
9849;DHT22;4963;51.444;6.528;2023-04-25T07:41:08;14.90;99.90
9849;DHT22;4963;51.444;6.528;2023-04-25T07:43:35;15.20;99.90
9849;DHT22;4963;51.444;6.528;2023-04-25T07:46:02;15.40;99.90
9849;DHT22;4963;51.444;6.528;2023-04-25T07:48:29;14.90;99.90
9849;DHT22;4963;51.444;6.528;2023-04-25T07:50:56;14.80;99.90
9849;DHT22;4963;51.444;6.528;2023-04-25T07:53:22;14.80;99.90
9849;DHT22;4963;51.444;6.528;2023-04-25T07:55:50;14.90;99.90
9849;DHT22;4963;51.444;6.528;2023-04-25T07:58:18;15.20;99.90
9849;DHT22;4963;51.444;6.528;2023-04-25T08:00:47;15.20;99.90
9849;DHT22;4963;51.444;6.528;2023-04-25T08:03:14;15.30;99.90
9849;DHT22;4963;51.444;6.528;2023-04-25T08:05:41;15.40;99.90
9849;DHT22;4963;51.444;6.528;2023-04-25T08:08:07;15.10;99.90
9849;DHT22;4963;51.444;6.528;2023-04-25T08:10:34;14.80;99.90
9849;DHT22;4963;51.444;6.528;2023-04-25T08:13:01;15.10;99.90
9849;DHT22;4963;51.444;6.528;2023-04-25T08:15:29;15.20;99.90
9849;DHT22;4963;51.444;6.528;2023-04-25T08:17:56;15.10;99.90
9849;DHT22;4963;51.444;6.528;2023-04-25T08:20:23;15.00;99.90
9849;DHT22;4963;51.444;6.528;2023-04-25T08:22:50;14.80;99.90
9849;DHT22;4963;51.444;6.528;2023-04-25T08:25:17;14.60;99.90
9849;DHT22;4963;51.444;6.528;2023-04-25T08:27:43;14.40;99.90
9849;DHT22;4963;51.444;6.528;2023-04-25T08:30:11;14.20;99.90
9849;DHT22;4963;51.444;6.528;2023-04-25T08:32:39;14.20;99.90
9849;DHT22;4963;51.444;6.528;2023-04-25T08:35:06;14.40;99.90
9849;DHT22;4963;51.444;6.528;2023-04-25T08:37:33;14.70;99.90
9849;DHT22;4963;51.444;6.528;2023-04-25T08:40:00;14.80;99.90
9849;DHT22;4963;51.444;6.528;2023-04-25T08:42:28;14.70;99.90
9849;DHT22;4963;51.444;6.528;2023-04-25T08:44:57;14.40;99.90
9849;DHT22;4963;51.444;6.528;2023-04-25T08:47:26;14.40;99.90
9849;DHT22;4963;51.444;6.528;2023-04-25T08:49:56;14.70;99.90
9849;DHT22;4963;51.444;6.528;2023-04-25T08:52:23;14.90;99.90
9849;DHT22;4963;51.444;6.528;2023-04-25T08:54:51;15.00;99.90
9849;DHT22;4963;51.444;6.528;2023-04-25T08:57:19;15.00;99.90
9849;DHT22;4963;51.444;6.528;2023-04-25T08:59:47;15.00;99.90
9849;DHT22;4963;51.444;6.528;2023-04-25T09:02:15;14.90;99.90
9849;DHT22;4963;51.444;6.528;2023-04-25T09:04:43;14.90;99.90
9849;DHT22;4963;51.444;6.528;2023-04-25T09:07:12;15.00;99.90
9849;DHT22;4963;51.444;6.528;2023-04-25T09:09:41;14.90;99.90
9849;DHT22;4963;51.444;6.528;2023-04-25T09:12:08;14.90;99.90
9849;DHT22;4963;51.444;6.528;2023-04-25T09:14:35;14.70;99.90
9849;DHT22;4963;51.444;6.528;2023-04-25T09:17:03;14.70;99.90
9849;DHT22;4963;51.444;6.528;2023-04-25T09:19:32;14.50;99.90
9849;DHT22;4963;51.444;6.528;2023-04-25T09:22:02;14.20;99.90
9849;DHT22;4963;51.444;6.528;2023-04-25T09:24:35;13.70;99.90
9849;DHT22;4963;51.444;6.528;2023-04-25T09:27:06;13.40;99.90
9849;DHT22;4963;51.444;6.528;2023-04-25T09:29:35;13.30;99.90
9849;DHT22;4963;51.444;6.528;2023-04-25T09:32:18;13.20;99.90
9849;DHT22;4963;51.444;6.528;2023-04-25T09:34:47;13.10;99.90
9849;DHT22;4963;51.444;6.528;2023-04-25T09:37:18;12.90;99.90
9849;DHT22;4963;51.444;6.528;2023-04-25T09:39:47;12.50;99.90
9849;DHT22;4963;51.444;6.528;2023-04-25T09:42:14;12.20;99.90
9849;DHT22;4963;51.444;6.528;2023-04-25T09:44:43;12.30;99.90
9849;DHT22;4963;51.444;6.528;2023-04-25T09:47:10;12.30;99.90
9849;DHT22;4963;51.444;6.528;2023-04-25T09:49:40;12.30;99.90
9849;DHT22;4963;51.444;6.528;2023-04-25T09:52:08;12.30;99.90
9849;DHT22;4963;51.444;6.528;2023-04-25T09:54:34;12.40;99.90
9849;DHT22;4963;51.444;6.528;2023-04-25T09:57:13;12.40;99.90
9849;DHT22;4963;51.444;6.528;2023-04-25T09:59:43;12.70;99.90
9849;DHT22;4963;51.444;6.528;2023-04-25T10:02:11;13.10;99.90
9849;DHT22;4963;51.444;6.528;2023-04-25T10:04:39;13.10;99.90
9849;DHT22;4963;51.444;6.528;2023-04-25T10:07:08;12.90;99.90
9849;DHT22;4963;51.444;6.528;2023-04-25T10:09:37;12.80;99.90
9849;DHT22;4963;51.444;6.528;2023-04-25T10:12:07;12.80;99.90
9849;DHT22;4963;51.444;6.528;2023-04-25T10:14:34;12.80;99.90
9849;DHT22;4963;51.444;6.528;2023-04-25T10:17:01;12.90;99.90
9849;DHT22;4963;51.444;6.528;2023-04-25T10:19:28;12.80;99.90
9849;DHT22;4963;51.444;6.528;2023-04-25T10:22:02;12.90;99.90
9849;DHT22;4963;51.444;6.528;2023-04-25T10:24:29;12.80;99.90
9849;DHT22;4963;51.444;6.528;2023-04-25T10:26:56;12.90;99.90
9849;DHT22;4963;51.444;6.528;2023-04-25T10:29:26;12.90;99.90
9849;DHT22;4963;51.444;6.528;2023-04-25T10:31:52;13.00;99.90
9849;DHT22;4963;51.444;6.528;2023-04-25T10:34:23;13.20;99.90
9849;DHT22;4963;51.444;6.528;2023-04-25T10:36:51;13.30;99.90
9849;DHT22;4963;51.444;6.528;2023-04-25T10:39:23;13.30;99.90
9849;DHT22;4963;51.444;6.528;2023-04-25T10:41:55;13.30;99.90
9849;DHT22;4963;51.444;6.528;2023-04-25T10:44:22;13.20;99.90
9849;DHT22;4963;51.444;6.528;2023-04-25T10:46:50;13.10;99.90
9849;DHT22;4963;51.444;6.528;2023-04-25T10:49:31;13.10;99.90
9849;DHT22;4963;51.444;6.528;2023-04-25T10:52:17;13.10;99.90
9849;DHT22;4963;51.444;6.528;2023-04-25T10:54:47;13.10;99.90
9849;DHT22;4963;51.444;6.528;2023-04-25T10:57:36;13.20;99.90
9849;DHT22;4963;51.444;6.528;2023-04-25T11:00:09;13.40;99.90
9849;DHT22;4963;51.444;6.528;2023-04-25T11:02:45;13.60;99.90
9849;DHT22;4963;51.444;6.528;2023-04-25T11:05:20;13.60;99.90
9849;DHT22;4963;51.444;6.528;2023-04-25T11:07:50;13.50;99.90
9849;DHT22;4963;51.444;6.528;2023-04-25T11:10:18;13.30;99.90
9849;DHT22;4963;51.444;6.528;2023-04-25T11:12:45;13.20;99.90
9849;DHT22;4963;51.444;6.528;2023-04-25T11:15:13;13.00;99.90
9849;DHT22;4963;51.444;6.528;2023-04-25T11:17:39;12.90;99.90
9849;DHT22;4963;51.444;6.528;2023-04-25T11:20:08;12.80;99.90
9849;DHT22;4963;51.444;6.528;2023-04-25T11:22:38;12.70;99.90
9849;DHT22;4963;51.444;6.528;2023-04-25T11:25:07;12.70;99.90
9849;DHT22;4963;51.444;6.528;2023-04-25T11:27:37;12.30;99.90
9849;DHT22;4963;51.444;6.528;2023-04-25T11:30:14;11.70;99.90
9849;DHT22;4963;51.444;6.528;2023-04-25T11:32:41;11.20;99.90
9849;DHT22;4963;51.444;6.528;2023-04-25T11:35:10;10.70;99.90
9849;DHT22;4963;51.444;6.528;2023-04-25T11:37:38;10.50;99.90
9849;DHT22;4963;51.444;6.528;2023-04-25T11:40:06;10.40;99.90
9849;DHT22;4963;51.444;6.528;2023-04-25T11:42:36;10.20;99.90
9849;DHT22;4963;51.444;6.528;2023-04-25T11:45:04;10.10;99.90
9849;DHT22;4963;51.444;6.528;2023-04-25T11:47:31;10.10;99.90
9849;DHT22;4963;51.444;6.528;2023-04-25T11:49:59;10.10;99.90
9849;DHT22;4963;51.444;6.528;2023-04-25T11:52:37;10.00;99.90
9849;DHT22;4963;51.444;6.528;2023-04-25T11:55:05;10.00;99.90
9849;DHT22;4963;51.444;6.528;2023-04-25T11:57:32;10.00;99.90
9849;DHT22;4963;51.444;6.528;2023-04-25T12:00:08;10.00;99.90
9849;DHT22;4963;51.444;6.528;2023-04-25T12:02:36;10.10;99.90
9849;DHT22;4963;51.444;6.528;2023-04-25T12:05:06;10.20;99.90
9849;DHT22;4963;51.444;6.528;2023-04-25T12:07:33;10.40;99.90
9849;DHT22;4963;51.444;6.528;2023-04-25T12:10:06;10.50;99.90
9849;DHT22;4963;51.444;6.528;2023-04-25T12:12:34;10.70;99.90
9849;DHT22;4963;51.444;6.528;2023-04-25T12:15:12;10.80;99.90
9849;DHT22;4963;51.444;6.528;2023-04-25T12:17:41;11.00;99.90
9849;DHT22;4963;51.444;6.528;2023-04-25T12:20:10;11.30;99.90
9849;DHT22;4963;51.444;6.528;2023-04-25T12:22:40;11.50;99.90
9849;DHT22;4963;51.444;6.528;2023-04-25T12:25:11;11.70;99.90
9849;DHT22;4963;51.444;6.528;2023-04-25T12:27:39;11.90;99.90
9849;DHT22;4963;51.444;6.528;2023-04-25T12:30:08;11.90;99.90
9849;DHT22;4963;51.444;6.528;2023-04-25T12:32:36;11.90;99.90
9849;DHT22;4963;51.444;6.528;2023-04-25T12:35:03;11.90;99.90
9849;DHT22;4963;51.444;6.528;2023-04-25T12:37:30;12.00;99.90
9849;DHT22;4963;51.444;6.528;2023-04-25T12:39:57;12.00;99.90
9849;DHT22;4963;51.444;6.528;2023-04-25T12:42:25;12.00;99.90
9849;DHT22;4963;51.444;6.528;2023-04-25T12:44:52;12.20;99.90
9849;DHT22;4963;51.444;6.528;2023-04-25T12:47:19;12.20;99.90
9849;DHT22;4963;51.444;6.528;2023-04-25T12:49:45;12.20;99.90
9849;DHT22;4963;51.444;6.528;2023-04-25T12:52:12;12.40;99.90
9849;DHT22;4963;51.444;6.528;2023-04-25T12:54:39;12.60;99.90
9849;DHT22;4963;51.444;6.528;2023-04-25T12:57:06;12.80;99.90
9849;DHT22;4963;51.444;6.528;2023-04-25T12:59:34;12.90;99.90
9849;DHT22;4963;51.444;6.528;2023-04-25T13:02:01;13.10;99.90
9849;DHT22;4963;51.444;6.528;2023-04-25T13:04:28;13.00;99.90
9849;DHT22;4963;51.444;6.528;2023-04-25T13:06:55;12.80;99.90
9849;DHT22;4963;51.444;6.528;2023-04-25T13:09:21;12.70;99.90
9849;DHT22;4963;51.444;6.528;2023-04-25T13:11:48;12.40;98.90
9849;DHT22;4963;51.444;6.528;2023-04-25T13:14:15;12.30;99.10
9849;DHT22;4963;51.444;6.528;2023-04-25T13:16:43;12.00;99.90
9849;DHT22;4963;51.444;6.528;2023-04-25T13:19:11;11.80;99.90
9849;DHT22;4963;51.444;6.528;2023-04-25T13:21:38;11.80;99.90
9849;DHT22;4963;51.444;6.528;2023-04-25T13:24:05;11.90;99.90
9849;DHT22;4963;51.444;6.528;2023-04-25T13:26:32;11.50;99.90
9849;DHT22;4963;51.444;6.528;2023-04-25T13:28:59;12.00;98.80
9849;DHT22;4963;51.444;6.528;2023-04-25T13:31:28;12.20;99.50
9849;DHT22;4963;51.444;6.528;2023-04-25T13:33:56;12.40;99.00
9849;DHT22;4963;51.444;6.528;2023-04-25T13:36:24;12.30;98.50
9849;DHT22;4963;51.444;6.528;2023-04-25T13:38:51;12.20;99.40
9849;DHT22;4963;51.444;6.528;2023-04-25T13:41:18;12.10;99.90
9849;DHT22;4963;51.444;6.528;2023-04-25T13:43:45;12.10;99.90
9849;DHT22;4963;51.444;6.528;2023-04-25T13:46:13;12.10;99.90
9849;DHT22;4963;51.444;6.528;2023-04-25T13:48:41;12.00;99.90
9849;DHT22;4963;51.444;6.528;2023-04-25T13:51:13;11.90;99.90
9849;DHT22;4963;51.444;6.528;2023-04-25T13:53:41;12.00;99.90
9849;DHT22;4963;51.444;6.528;2023-04-25T13:56:08;12.00;99.90
9849;DHT22;4963;51.444;6.528;2023-04-25T13:58:35;12.20;99.90
9849;DHT22;4963;51.444;6.528;2023-04-25T14:01:01;12.30;99.90
9849;DHT22;4963;51.444;6.528;2023-04-25T14:03:28;12.50;99.10
9849;DHT22;4963;51.444;6.528;2023-04-25T14:05:55;12.60;99.90
9849;DHT22;4963;51.444;6.528;2023-04-25T14:08:23;12.70;99.20
9849;DHT22;4963;51.444;6.528;2023-04-25T14:10:50;12.70;99.20
9849;DHT22;4963;51.444;6.528;2023-04-25T14:13:17;12.70;99.60
9849;DHT22;4963;51.444;6.528;2023-04-25T14:15:44;12.70;98.30
9849;DHT22;4963;51.444;6.528;2023-04-25T14:18:10;12.70;98.80
9849;DHT22;4963;51.444;6.528;2023-04-25T14:20:37;12.70;98.60
9849;DHT22;4963;51.444;6.528;2023-04-25T14:23:04;12.70;98.20
9849;DHT22;4963;51.444;6.528;2023-04-25T14:25:32;12.70;98.30
9849;DHT22;4963;51.444;6.528;2023-04-25T14:28:01;12.50;97.70
9849;DHT22;4963;51.444;6.528;2023-04-25T14:30:27;12.40;97.90
9849;DHT22;4963;51.444;6.528;2023-04-25T14:32:54;12.30;98.50
9849;DHT22;4963;51.444;6.528;2023-04-25T14:35:21;12.10;99.90
9849;DHT22;4963;51.444;6.528;2023-04-25T14:37:48;12.00;99.90
9849;DHT22;4963;51.444;6.528;2023-04-25T14:40:15;11.90;99.90
9849;DHT22;4963;51.444;6.528;2023-04-25T14:42:43;11.70;99.90
9849;DHT22;4963;51.444;6.528;2023-04-25T14:45:11;11.60;99.90
9849;DHT22;4963;51.444;6.528;2023-04-25T14:47:38;11.60;99.90
9849;DHT22;4963;51.444;6.528;2023-04-25T14:50:06;11.60;99.90
9849;DHT22;4963;51.444;6.528;2023-04-25T14:52:34;11.50;99.90
9849;DHT22;4963;51.444;6.528;2023-04-25T14:55:01;11.50;99.90
9849;DHT22;4963;51.444;6.528;2023-04-25T14:57:30;11.60;99.90
9849;DHT22;4963;51.444;6.528;2023-04-25T14:59:58;11.70;99.90
9849;DHT22;4963;51.444;6.528;2023-04-25T15:02:25;11.90;99.90
9849;DHT22;4963;51.444;6.528;2023-04-25T15:04:52;12.00;99.90
9849;DHT22;4963;51.444;6.528;2023-04-25T15:07:19;12.00;99.90
9849;DHT22;4963;51.444;6.528;2023-04-25T15:09:47;11.90;99.90
9849;DHT22;4963;51.444;6.528;2023-04-25T15:12:14;11.90;99.90
9849;DHT22;4963;51.444;6.528;2023-04-25T15:14:41;11.90;99.80
9849;DHT22;4963;51.444;6.528;2023-04-25T15:17:09;11.70;99.50
9849;DHT22;4963;51.444;6.528;2023-04-25T15:19:38;11.60;99.20
9849;DHT22;4963;51.444;6.528;2023-04-25T15:22:05;11.50;99.90
9849;DHT22;4963;51.444;6.528;2023-04-25T15:24:32;11.50;99.90
9849;DHT22;4963;51.444;6.528;2023-04-25T15:26:59;11.50;99.90
9849;DHT22;4963;51.444;6.528;2023-04-25T15:29:26;11.50;99.90
9849;DHT22;4963;51.444;6.528;2023-04-25T15:31:54;11.50;99.90
9849;DHT22;4963;51.444;6.528;2023-04-25T15:34:22;11.60;99.20
9849;DHT22;4963;51.444;6.528;2023-04-25T15:36:49;11.60;97.90
9849;DHT22;4963;51.444;6.528;2023-04-25T15:39:16;11.60;99.10
9849;DHT22;4963;51.444;6.528;2023-04-25T15:41:43;11.60;98.60
9849;DHT22;4963;51.444;6.528;2023-04-25T15:44:09;11.70;98.70
9849;DHT22;4963;51.444;6.528;2023-04-25T15:46:37;11.70;97.00
9849;DHT22;4963;51.444;6.528;2023-04-25T15:49:03;11.60;98.20
9849;DHT22;4963;51.444;6.528;2023-04-25T15:51:32;11.50;99.20
9849;DHT22;4963;51.444;6.528;2023-04-25T15:53:59;11.40;99.50
9849;DHT22;4963;51.444;6.528;2023-04-25T15:56:26;11.30;99.80
9849;DHT22;4963;51.444;6.528;2023-04-25T15:58:53;11.30;99.80
9849;DHT22;4963;51.444;6.528;2023-04-25T16:01:20;11.40;99.90
9849;DHT22;4963;51.444;6.528;2023-04-25T16:03:49;11.40;98.90
9849;DHT22;4963;51.444;6.528;2023-04-25T16:06:15;11.40;99.90
9849;DHT22;4963;51.444;6.528;2023-04-25T16:08:44;11.50;99.90
9849;DHT22;4963;51.444;6.528;2023-04-25T16:11:10;11.50;99.50
9849;DHT22;4963;51.444;6.528;2023-04-25T16:13:39;11.60;99.60